Terminal Aerodrome Forecast
Issued by NWS

Home | Current Version | Previous Version | Text Only | Print | Product List | Glossary On
Versions: 1 2 3 4 5 6 7 8 9 10 11 12 13 14 15 16 17 18 19
000
FTUS46 KLOX 191742
TAFPMD
TAF
KPMD 191742Z 1918/2018 11003KT P6SM SKC
     FM192000 25015G22KT P6SM SCT150
     FM200600 VRB03KT P6SM VCSH BKN050
     FM201100 VRB03KT P6SM -RA OVC050=

USA.gov is the U.S. government's official web portal to all federal, state and local government web resources and services.